BECOME A PILOT QUICK-START GUIDE

First Landings Aviation
Pilot Certification | Aircraft Sales | Aircraft Maintenance & Service

First Landings Aviation is your safest source for affordable aviation and flying in Florida.  Launched in 2009, we became Central Florida’s first sport pilot training center. Since then, First Landings Aviation has grown into an internationally known flight school and one of Florida’s leading aircraft service centers.

 

First Landings - Florida’s First Choice for Flight School!

Our Southeastern United States flight school in Apopka, FL, offers the best in Sport and General Aviation Pilot Training. With service expansion to the Orlando, Tampa, and Miami areas, we are able to assist an array of clients from surrounding states, as well as internationally from Canada and Europe, with services for maintaining and operating aircraft.

Weather Underground Forecast
Next 4 Days

The location could not be found.

Available Data for Leesburg, FL
Past 8 Hours

LEESBURG, FL
Metar
KLEE 212353Z AUTO 27006KT 10SM CLR 21/07 A3012 RMK AO2 SLP196 T02110067 10244 20211 53006 $

23:53 UTC

Wind: 270° 6kt

Visibility: 10 SM

Sky:

Temp: 21 deg C / 69.8 deg F

Dewpoint: 7 deg C / 44.6 deg F

Pressure: 30.12 inHg

TAF
KLEE 212324Z 2200/2224 VRB03KT P6SM SKC FM221500 10005KT P6SM SKC

Join our newsletter!

Signup to recieve our First Landings Aviation newsletter!

We will never give away, trade or sell your email address. You can unsubscribe at any time.